KJST/JST METAR and TAF weather

Enter ICAO airport designator
Station Type Date Time Source
KJST METAR 2021/08/05 03:54 UTC NOAA

KJST 050354Z AUTO 13003KT 10SM CLR 18/12 A3017 RMK AO2 SLP205 T01780117


Station Type Date Time Source
KJST Decoded METAR 2021/08/05 03:54 UTC NOAA

JOHNSTOWN-CAMBRIA CO AIRPORT , PA, United States (KJST) 40-19N 078-50W 694M
Aug 04, 2021 - 11:54 PM EDT / 2021.08.05 0354 UTC
Wind: from the SE (130 degrees) at 3 MPH (3 KT):0
Visibility: 10 mile(s):0
Sky conditions: clear
Temperature: 64.0 F (17.8 C)
Dew Point: 53.1 F (11.7 C)
Relative Humidity: 67%
Pressure (altimeter): 30.17 in. Hg (1021 hPa)
ob: KJST 050354Z AUTO 13003KT 10SM CLR 18/12 A3017 RMK AO2 SLP205 T01780117
cycle: 4

Station Type Date Time Source
KJST TAF 2021/08/05 03:54 UTC NOAA

TAF
AMD KJST 050252Z 0503/0524 VRB03KT P6SM SCT120
FM051300 VRB03KT P6SM SCT070

Example: see airport list